Time;durP1;ratioP1;P1;durP2;ratioP2;P2;SDS_P1;SDS_P2;PMS_P1;PMS_P2;Temp;Humidity;BMP_temperature;BMP_pressure;BME280_temperature;BME280_humidity;BME280_pressure;Samples;Min_cycle;Max_cycle;Signal;HPM_P1;HPM_P2
2023/01/10 00:00:13;;;;;;;3.67;3.20;;;4.80;99.90;;;5.31;100.00;97586.41;5223801;28;20248;-61
2023/01/10 00:02:47;;;;;;;3.23;2.93;;;4.80;99.90;;;5.31;100.00;97583.88;5222988;28;20224;-61
2023/01/10 00:05:21;;;;;;;3.20;2.90;;;4.80;99.90;;;5.47;100.00;97587.53;5218746;28;20208;-62
2023/01/10 00:07:54;;;;;;;3.17;2.87;;;4.80;99.90;;;5.63;100.00;97580.25;5221882;28;20292;-60
2023/01/10 00:10:27;;;;;;;3.40;3.13;;;4.80;99.90;;;5.54;100.00;97587.19;5223807;28;20230;-60
2023/01/10 00:15:53;;;;;;;2.77;2.57;;;4.80;99.90;;;5.38;100.00;97590.28;5223332;28;20660;-60
2023/01/10 00:18:27;;;;;;;3.23;2.63;;;4.80;99.90;;;5.31;100.00;97586.41;5223547;28;20204;-59
2023/01/10 00:21:00;;;;;;;3.50;3.30;;;4.80;99.90;;;5.35;100.00;97592.56;5216470;28;20234;-60
2023/01/10 00:23:34;;;;;;;3.40;3.03;;;4.80;99.90;;;5.33;100.00;97595.00;5224536;28;20231;-60
2023/01/10 00:26:07;;;;;;;4.07;2.57;;;4.70;99.90;;;5.34;100.00;97594.22;5217904;28;20213;-60
2023/01/10 00:28:41;;;;;;;3.10;2.90;;;4.70;99.90;;;5.28;100.00;97591.25;5220340;28;20296;-60
2023/01/10 00:31:15;;;;;;;3.07;2.87;;;4.70;99.90;;;5.30;100.00;97602.41;5231601;28;20670;-60
2023/01/10 00:33:50;;;;;;;3.27;2.97;;;4.70;99.90;;;5.29;100.00;97605.69;5220856;28;20221;-61
2023/01/10 00:36:23;;;;;;;3.00;2.80;;;4.70;99.90;;;5.34;100.00;97606.91;5219574;28;20292;-60
2023/01/10 00:38:55;;;;;;;3.30;3.10;;;4.80;99.90;;;5.34;100.00;97611.09;5220872;28;20229;-61
2023/01/10 00:44:19;;;;;;;3.90;3.50;;;4.80;99.90;;;5.29;100.00;97617.47;5218950;28;20942;-60
2023/01/10 00:46:53;;;;;;;3.57;3.27;;;4.70;99.90;;;5.28;100.00;97621.66;5220192;28;20201;-60
2023/01/10 00:49:27;;;;;;;3.70;3.40;;;4.80;99.90;;;5.37;100.00;97624.84;5219582;28;20289;-60
2023/01/10 00:52:01;;;;;;;3.77;3.10;;;4.80;99.90;;;5.31;100.00;97637.09;5220096;28;20256;-61
2023/01/10 00:54:34;;;;;;;3.83;3.53;;;4.70;99.90;;;5.36;100.00;97635.78;5222949;28;20640;-60
2023/01/10 00:57:07;;;;;;;3.33;3.13;;;4.80;99.90;;;5.36;100.00;97640.84;5219428;28;20211;-60
2023/01/10 00:59:40;;;;;;;3.70;3.07;;;4.70;99.90;;;5.38;100.00;97640.97;5217318;28;20209;-59
2023/01/10 01:02:13;;;;;;;3.30;3.10;;;4.70;99.90;;;5.33;100.00;97640.63;5222555;28;20228;-60
2023/01/10 01:04:47;;;;;;;3.40;3.10;;;4.80;99.90;;;5.34;100.00;97649.97;5220392;28;20208;-59
2023/01/10 01:07:20;;;;;;;3.40;3.10;;;4.80;99.90;;;5.32;100.00;97659.16;5223772;28;20207;-59
2023/01/10 01:12:44;;;;;;;4.57;4.27;;;4.80;99.90;;;5.39;100.00;97661.34;5219230;28;20252;-57
2023/01/10 01:15:17;;;;;;;5.53;3.63;;;4.80;99.90;;;5.36;100.00;97667.84;5216960;28;20734;-60
2023/01/10 01:17:50;;;;;;;4.97;4.00;;;4.80;99.90;;;5.35;100.00;97679.63;5218286;28;20660;-61
2023/01/10 01:20:25;;;;;;;4.27;3.97;;;4.80;99.90;;;5.32;100.00;97679.41;5215642;28;20248;-61
2023/01/10 01:22:59;;;;;;;4.20;3.90;;;4.80;99.90;;;5.34;100.00;97697.25;5222347;28;20771;-60
2023/01/10 01:25:33;;;;;;;3.93;3.60;;;4.80;99.90;;;5.41;100.00;97685.16;5213606;28;20228;-60
2023/01/10 01:28:06;;;;;;;4.20;3.80;;;4.80;99.90;;;5.35;100.00;97689.78;5220027;28;20208;-60
2023/01/10 01:30:39;;;;;;;3.93;3.60;;;4.70;99.90;;;5.31;100.00;97702.09;5220230;28;20657;-59
2023/01/10 01:33:13;;;;;;;4.07;3.70;;;4.80;99.90;;;5.20;100.00;97711.41;5221165;28;20221;-60
2023/01/10 01:35:49;;;;;;;3.53;3.30;;;4.70;99.90;;;5.23;100.00;97719.25;5220995;28;20309;-59
2023/01/10 01:38:22;;;;;;;3.57;3.37;;;4.70;99.90;;;5.18;100.00;97728.19;5219651;28;20239;-60
2023/01/10 01:40:55;;;;;;;3.90;3.60;;;4.70;99.90;;;5.18;100.00;97735.78;5221620;28;20308;-60
2023/01/10 01:43:30;;;;;;;3.40;3.20;;;4.70;99.90;;;5.18;100.00;97735.78;5217227;28;20759;-60
2023/01/10 01:46:04;;;;;;;3.80;3.60;;;4.70;99.90;;;5.19;100.00;97742.59;5218368;28;20204;-59
2023/01/10 01:48:41;;;;;;;3.70;3.40;;;4.70;99.90;;;5.22;100.00;97754.63;5219696;28;20214;-60
2023/01/10 01:51:21;;;;;;;4.10;3.80;;;4.70;99.90;;;5.27;100.00;97751.66;5221251;28;20196;-59
2023/01/10 01:53:59;;;;;;;3.70;3.40;;;4.80;99.90;;;5.28;100.00;97763.56;5215351;28;20236;-60
2023/01/10 01:56:37;;;;;;;3.40;3.20;;;4.80;99.90;;;5.32;100.00;97770.63;5222166;28;20201;-60
2023/01/10 01:59:14;;;;;;;3.73;3.43;;;4.80;99.90;;;5.38;100.00;97772.75;5218530;28;20211;-60
2023/01/10 02:01:51;;;;;;;3.70;3.40;;;4.80;99.90;;;5.51;100.00;97777.06;5219642;28;20248;-61
2023/01/10 02:04:29;;;;;;;4.13;3.83;;;4.90;99.90;;;5.44;100.00;97780.81;5220331;28;20197;-61
2023/01/10 02:07:04;;;;;;;4.07;3.63;;;4.80;99.90;;;5.41;100.00;97781.47;5220764;28;20616;-60
2023/01/10 02:09:42;;;;;;;3.70;3.40;;;4.80;99.90;;;5.44;100.00;97796.03;5220327;28;20631;-60
2023/01/10 02:12:16;;;;;;;3.63;3.43;;;4.80;99.90;;;5.38;100.00;97786.31;5222064;28;20241;-61
2023/01/10 02:14:50;;;;;;;3.87;3.67;;;4.90;99.90;;;5.38;100.00;97786.31;5218454;28;20205;-59
2023/01/10 02:17:24;;;;;;;3.97;3.60;;;4.80;99.90;;;5.42;100.00;97793.34;5218821;28;20565;-61
2023/01/10 02:20:02;;;;;;;4.23;3.90;;;4.80;99.90;;;5.47;100.00;97805.50;5220267;28;20244;-60
2023/01/10 02:23:11;;;;;;;4.30;4.00;;;4.80;99.90;;;5.39;100.00;97807.44;5220484;28;20267;-60
2023/01/10 02:26:22;;;;;;;4.03;3.73;;;4.90;99.90;;;5.35;100.00;97808.88;5219838;28;20515;-60
2023/01/10 02:29:46;;;;;;;4.20;3.90;;;4.80;99.90;;;5.30;100.00;97815.25;5221453;28;20682;-60
2023/01/10 02:32:41;;;;;;;4.23;3.90;;;4.80;99.90;;;5.30;100.00;97817.78;5212857;28;20697;-61
2023/01/10 02:35:58;;;;;;;3.93;3.70;;;4.80;99.90;;;5.31;100.00;97824.59;5218950;28;20247;-60
2023/01/10 02:38:51;;;;;;;6.23;4.50;;;4.80;99.90;;;5.47;100.00;97830.84;5219921;28;20618;-60
2023/01/10 02:41:33;;;;;;;4.60;4.17;;;4.90;99.90;;;5.40;100.00;97835.44;5217968;28;20261;-60
2023/01/10 02:44:12;;;;;;;4.50;4.10;;;4.80;99.90;;;5.31;100.00;97833.84;5215890;28;20221;-60
2023/01/10 02:46:47;;;;;;;4.17;3.87;;;4.90;99.90;;;5.39;100.00;97843.81;5213100;28;20289;-61
2023/01/10 02:49:21;;;;;;;4.43;4.07;;;4.90;99.90;;;5.43;100.00;97850.00;5216636;28;20199;-61
2023/01/10 02:51:55;;;;;;;4.37;4.00;;;4.90;99.90;;;5.42;100.00;97863.44;5219777;28;20203;-59
2023/01/10 02:54:30;;;;;;;4.50;4.17;;;4.90;99.90;;;5.41;100.00;97861.69;5220954;28;20586;-58
2023/01/10 02:57:34;;;;;;;4.40;4.10;;;4.90;99.90;;;5.42;100.00;97861.78;5220079;28;20730;-60
2023/01/10 03:00:31;;;;;;;4.53;4.07;;;4.80;99.90;;;5.38;100.00;97867.41;5221133;28;20280;-60
2023/01/10 03:03:18;;;;;;;3.70;3.40;;;4.90;99.90;;;5.47;100.00;97867.22;5219963;28;20229;-59
2023/01/10 03:06:06;;;;;;;3.93;3.67;;;4.90;99.90;;;5.50;100.00;97866.56;5217962;28;20288;-60
2023/01/10 03:08:50;;;;;;;4.23;3.97;;;4.90;99.90;;;5.51;100.00;97883.53;5223582;28;20205;-59
2023/01/10 03:11:39;;;;;;;3.87;3.57;;;4.90;99.90;;;5.56;100.00;97884.78;5223826;28;20645;-61
2023/01/10 03:14:18;;;;;;;3.93;3.60;;;4.90;99.90;;;5.52;100.00;97890.38;5224240;28;20233;-60
2023/01/10 03:16:58;;;;;;;3.97;3.67;;;4.90;99.90;;;5.52;100.00;97900.50;5225018;28;20197;-60
2023/01/10 03:19:35;;;;;;;3.40;3.10;;;4.90;99.90;;;5.57;100.00;97904.28;5219286;28;20287;-60
2023/01/10 03:22:10;;;;;;;3.87;3.60;;;4.90;99.90;;;5.52;100.00;97903.03;5221772;28;20229;-60
2023/01/10 03:24:48;;;;;;;3.90;3.60;;;4.90;99.90;;;5.45;100.00;97916.03;5221177;28;20205;-60
2023/01/10 03:27:30;;;;;;;3.93;3.63;;;4.90;99.90;;;5.42;100.00;97925.16;5218142;28;20628;-60
2023/01/10 03:30:13;;;;;;;4.20;3.67;;;4.80;99.90;;;5.30;100.00;97923.31;5223944;28;20577;-60
2023/01/10 03:32:46;;;;;;;3.83;3.60;;;4.80;99.90;;;5.28;100.00;97930.78;5220073;28;20267;-60
2023/01/10 03:35:22;;;;;;;3.90;3.60;;;4.80;99.90;;;5.29;100.00;97942.69;5223344;28;20259;-61
2023/01/10 03:38:04;;;;;;;3.83;3.20;;;4.80;99.90;;;5.25;100.00;97948.28;5219706;28;20263;-61
2023/01/10 03:40:51;;;;;;;4.00;3.70;;;4.80;99.90;;;5.18;100.00;97956.19;5223785;28;20681;-60
2023/01/10 03:46:33;;;;;;;4.33;4.00;;;4.80;99.90;;;5.25;100.00;97958.44;5220053;28;20208;-61
2023/01/10 03:49:08;;;;;;;4.47;4.07;;;4.70;99.90;;;5.27;100.00;97968.69;5222289;28;20213;-60
2023/01/10 03:51:42;;;;;;;5.00;4.17;;;4.70;99.90;;;5.43;100.00;97959.84;5221085;28;20228;-60
2023/01/10 03:54:17;;;;;;;4.03;3.63;;;4.80;99.90;;;5.32;100.00;97967.38;5222915;28;20659;-60
2023/01/10 03:56:51;;;;;;;4.43;4.10;;;4.80;99.90;;;5.28;100.00;97976.41;5220608;28;20252;-61
2023/01/10 03:59:26;;;;;;;4.53;4.03;;;4.80;99.90;;;5.23;100.00;97976.81;5220868;28;20742;-60
2023/01/10 04:01:59;;;;;;;5.03;4.20;;;4.80;99.90;;;5.23;100.00;97981.88;5219824;28;20311;-60
2023/01/10 04:04:33;;;;;;;4.73;4.30;;;4.70;99.90;;;5.24;100.00;97988.72;5223998;28;20201;-60
2023/01/10 04:07:06;;;;;;;6.57;4.40;;;4.70;99.90;;;5.12;100.00;98003.81;5218894;28;20688;-60
2023/01/10 04:09:40;;;;;;;4.63;4.27;;;4.60;99.90;;;5.14;100.00;98003.16;5221053;28;20288;-59
2023/01/10 04:12:13;;;;;;;5.47;4.60;;;4.60;99.90;;;5.16;100.00;98010.91;5222146;28;20268;-59
2023/01/10 04:14:46;;;;;;;4.67;4.27;;;4.60;99.90;;;5.18;100.00;98027.13;5223423;28;20223;-60
2023/01/10 04:17:19;;;;;;;4.50;4.10;;;4.60;99.90;;;5.19;100.00;98036.47;5221722;28;20202;-60
2023/01/10 04:19:53;;;;;;;4.73;3.80;;;4.60;99.90;;;5.23;100.00;98038.50;5222966;28;20197;-60
2023/01/10 04:22:27;;;;;;;4.80;4.20;;;4.60;99.90;;;5.14;100.00;98041.16;5219047;28;20251;-61
2023/01/10 04:25:01;;;;;;;5.60;3.90;;;4.60;99.90;;;5.27;100.00;98047.25;5220705;28;20259;-60
2023/01/10 04:27:34;;;;;;;6.53;4.83;;;4.60;99.90;;;5.35;100.00;98044.56;5221022;28;20224;-59
2023/01/10 04:30:09;;;;;;;4.37;3.97;;;4.70;99.90;;;5.17;100.00;98058.28;5226995;28;20225;-61
2023/01/10 04:32:42;;;;;;;4.47;3.47;;;4.60;99.90;;;5.06;100.00;98052.31;5222507;28;20299;-60
2023/01/10 04:35:15;;;;;;;4.43;4.00;;;4.60;99.90;;;5.08;100.00;98052.47;5221465;28;20211;-60
2023/01/10 04:37:48;;;;;;;4.83;4.23;;;4.60;99.90;;;5.08;100.00;98053.34;5220758;28;20712;-61
2023/01/10 04:40:23;;;;;;;4.73;3.73;;;4.60;99.90;;;5.16;100.00;98064.09;5221980;28;20255;-60
2023/01/10 04:42:56;;;;;;;4.40;3.40;;;4.60;99.90;;;5.03;100.00;98071.47;5221775;28;20279;-60
2023/01/10 04:45:29;;;;;;;6.47;4.00;;;4.50;99.90;;;5.00;100.00;98078.81;5218949;28;20339;-60
2023/01/10 04:48:02;;;;;;;6.63;3.70;;;4.50;99.90;;;5.03;100.00;98084.13;5221223;28;20201;-60
2023/01/10 04:50:35;;;;;;;4.43;4.03;;;4.50;99.90;;;4.98;100.00;98091.38;5221936;28;20241;-59
2023/01/10 04:53:09;;;;;;;5.93;4.30;;;4.40;99.90;;;5.00;100.00;98088.94;5221943;28;20213;-61
2023/01/10 04:55:43;;;;;;;5.27;4.20;;;4.40;99.90;;;4.87;100.00;98098.06;5221925;28;20401;-60
2023/01/10 04:58:16;;;;;;;7.60;4.30;;;4.40;99.90;;;4.96;100.00;98086.16;5222980;28;20232;-60
2023/01/10 05:00:51;;;;;;;4.93;4.23;;;4.50;99.90;;;5.01;100.00;98093.25;5218156;28;20293;-60
2023/01/10 05:03:24;;;;;;;5.70;4.40;;;4.50;99.90;;;5.04;100.00;98106.19;5223001;28;20216;-60
2023/01/10 05:05:59;;;;;;;5.87;4.20;;;4.50;99.90;;;5.16;100.00;98108.06;5225562;28;20205;-59
2023/01/10 05:08:32;;;;;;;7.27;4.50;;;4.60;99.90;;;5.16;100.00;98107.19;5223137;28;20266;-60
2023/01/10 05:11:06;;;;;;;7.53;4.20;;;4.50;99.90;;;5.04;100.00;98131.50;5222398;28;20708;-60
2023/01/10 05:13:40;;;;;;;4.10;3.70;;;4.50;99.90;;;4.99;100.00;98132.78;5218734;28;20228;-60
2023/01/10 05:16:13;;;;;;;6.80;4.53;;;4.50;99.90;;;5.04;100.00;98136.59;5219685;28;20612;-60
2023/01/10 05:18:47;;;;;;;6.30;4.20;;;4.50;99.90;;;5.01;100.00;98154.03;5219070;28;20225;-60
2023/01/10 05:21:20;;;;;;;8.07;5.73;;;4.50;99.90;;;5.03;100.00;98143.25;5219777;28;20201;-60
2023/01/10 05:23:53;;;;;;;6.40;4.90;;;4.50;99.90;;;5.02;100.00;98154.16;5221279;28;20225;-59
2023/01/10 05:26:27;;;;;;;7.10;5.10;;;4.50;99.90;;;5.03;100.00;98157.59;5219607;28;20796;-59
2023/01/10 05:29:00;;;;;;;5.60;5.10;;;4.50;99.90;;;5.16;100.00;98153.66;5219544;28;20197;-60
2023/01/10 05:31:33;;;;;;;6.10;5.50;;;4.60;99.90;;;5.13;100.00;98160.13;5218064;28;20233;-59
2023/01/10 05:34:07;;;;;;;6.83;5.30;;;4.50;99.90;;;5.13;100.00;98162.66;5220669;28;20665;-59
2023/01/10 05:36:40;;;;;;;7.83;5.77;;;4.50;99.90;;;5.08;100.00;98167.34;5226483;28;20656;-61
2023/01/10 05:39:13;;;;;;;7.43;5.10;;;4.50;99.90;;;5.13;100.00;98162.66;5219412;28;20311;-59
2023/01/10 05:41:48;;;;;;;6.90;5.40;;;4.50;99.90;;;5.25;100.00;98162.78;5225394;28;20687;-60
2023/01/10 05:44:21;;;;;;;8.67;5.70;;;4.60;99.90;;;5.10;100.00;98168.38;5219841;28;20301;-59
2023/01/10 05:46:54;;;;;;;8.00;5.20;;;4.50;99.90;;;5.08;100.00;98169.88;5218680;28;20284;-61
2023/01/10 05:49:27;;;;;;;5.53;4.87;;;4.50;99.90;;;5.05;100.00;98183.94;5223814;28;20204;-62
2023/01/10 05:52:00;;;;;;;8.07;5.47;;;4.50;99.90;;;5.06;100.00;98180.63;5221447;28;20229;-60
2023/01/10 05:54:33;;;;;;;7.30;5.30;;;4.50;99.90;;;5.06;100.00;98175.56;5218569;28;20607;-60
2023/01/10 05:57:08;;;;;;;7.73;5.27;;;4.50;99.90;;;4.99;100.00;98185.97;5221054;28;20204;-60
2023/01/10 05:59:41;;;;;;;7.60;5.43;;;4.40;99.90;;;4.95;100.00;98198.38;5221553;28;20228;-60
2023/01/10 06:02:14;;;;;;;7.90;5.73;;;4.40;99.90;;;4.93;100.00;98204.94;5226022;28;20244;-60
2023/01/10 06:04:47;;;;;;;8.00;5.47;;;4.40;99.90;;;4.95;100.00;98208.50;5217399;28;20236;-60
2023/01/10 06:07:20;;;;;;;7.57;5.43;;;4.40;99.90;;;4.93;100.00;98212.53;5211677;28;20237;-60
2023/01/10 06:09:53;;;;;;;10.00;5.00;;;4.40;99.90;;;4.95;100.00;98217.72;5209933;28;20197;-60
2023/01/10 06:12:28;;;;;;;9.30;5.80;;;4.40;99.90;;;4.93;100.00;98230.28;5217457;28;20271;-60
2023/01/10 06:15:02;;;;;;;9.33;5.43;;;4.40;99.90;;;4.93;100.00;98230.28;5217508;28;20193;-61
2023/01/10 06:17:35;;;;;;;6.80;5.37;;;4.40;99.90;;;4.94;100.00;98239.63;5222773;28;20220;-61
2023/01/10 06:20:10;;;;;;;6.10;5.10;;;4.40;99.90;;;4.97;100.00;98237.34;5217488;28;20221;-62
2023/01/10 06:22:44;;;;;;;9.33;5.70;;;4.40;99.90;;;5.01;100.00;98240.16;5215770;28;20268;-62
2023/01/10 06:25:17;;;;;;;8.23;5.43;;;4.40;99.90;;;5.03;100.00;98242.06;5216025;28;20692;-62
2023/01/10 06:27:51;;;;;;;8.23;5.07;;;4.50;99.90;;;5.04;100.00;98243.84;5213148;28;20288;-62
2023/01/10 06:30:25;;;;;;;7.97;4.80;;;4.50;99.90;;;5.09;100.00;98246.75;5223338;28;20200;-61
2023/01/10 06:33:02;;;;;;;7.90;5.03;;;4.40;99.90;;;5.01;100.00;98247.75;5220173;28;20248;-62
2023/01/10 06:35:36;;;;;;;8.67;5.40;;;4.40;99.90;;;5.04;100.00;98253.97;5222426;28;20752;-61
2023/01/10 06:38:09;;;;;;;9.70;5.10;;;4.40;99.90;;;4.99;100.00;98257.78;5215957;28;20205;-61
2023/01/10 06:40:42;;;;;;;9.83;5.30;;;4.40;99.90;;;5.01;100.00;98266.41;5222411;28;20570;-61
2023/01/10 06:43:16;;;;;;;7.80;5.13;;;4.40;99.90;;;4.91;100.00;98261.28;5220531;28;20230;-61
2023/01/10 06:45:50;;;;;;;9.33;5.00;;;4.40;99.90;;;4.94;100.00;98267.50;5221630;28;20691;-61
2023/01/10 06:48:23;;;;;;;10.23;5.10;;;4.30;99.90;;;4.92;100.00;98269.03;5218697;28;20205;-61
2023/01/10 06:50:56;;;;;;;7.27;5.60;;;4.40;99.90;;;4.92;100.00;98284.22;5220134;28;20235;-62
2023/01/10 06:53:29;;;;;;;12.57;4.90;;;4.30;99.90;;;4.83;100.00;98295.19;5215796;28;20685;-59
2023/01/10 06:56:04;;;;;;;10.27;4.97;;;4.30;99.90;;;4.81;100.00;98300.16;5220636;28;20735;-63
2023/01/10 06:58:39;;;;;;;5.40;4.57;;;4.30;99.90;;;4.85;100.00;98312.31;5221093;28;20192;-61
2023/01/10 07:01:15;;;;;;;11.13;4.43;;;4.30;99.90;;;4.82;100.00;98311.16;5211149;28;20663;-63
2023/01/10 07:03:48;;;;;;;9.10;5.30;;;4.30;99.90;;;4.86;100.00;98323.31;5223655;28;20625;-62
2023/01/10 07:06:22;;;;;;;8.37;4.37;;;4.30;99.90;;;4.83;100.00;98323.06;5222400;28;20232;-62
2023/01/10 07:08:55;;;;;;;9.30;5.30;;;4.20;99.90;;;4.77;100.00;98325.94;5223049;28;20607;-62
2023/01/10 07:11:28;;;;;;;7.57;5.00;;;4.20;99.90;;;4.75;100.00;98330.00;5219474;28;20208;-62
2023/01/10 07:14:03;;;;;;;9.17;4.67;;;4.20;99.90;;;4.73;100.00;98336.56;5221501;28;20224;-62
2023/01/10 07:16:36;;;;;;;8.57;4.87;;;4.20;99.90;;;4.69;100.00;98342.09;5222325;28;20566;-62
2023/01/10 07:19:12;;;;;;;8.57;5.23;;;4.10;99.90;;;4.67;100.00;98346.16;5222904;28;20642;-62
2023/01/10 07:21:45;;;;;;;9.33;5.27;;;4.20;99.90;;;4.64;100.00;98340.84;5219229;28;20228;-60
2023/01/10 07:24:18;;;;;;;8.27;5.10;;;4.10;99.90;;;4.60;100.00;98348.91;5223104;28;20604;-59
2023/01/10 07:26:54;;;;;;;8.03;4.80;;;4.00;99.90;;;4.57;100.00;98351.16;5222663;28;20201;-61
2023/01/10 07:29:29;;;;;;;9.00;4.40;;;4.00;99.90;;;4.53;100.00;98356.72;5216139;28;20202;-60
2023/01/10 07:32:02;;;;;;;7.53;5.20;;;4.00;99.90;;;4.54;100.00;98351.78;5202921;28;20228;-61
2023/01/10 07:34:35;;;;;;;8.83;5.77;;;4.00;99.90;;;4.50;100.00;98363.28;5209859;28;20292;-61
2023/01/10 07:37:08;;;;;;;8.70;6.00;;;4.00;99.90;;;4.50;100.00;98368.34;5222525;28;20202;-62
2023/01/10 07:39:42;;;;;;;8.17;5.50;;;4.00;99.90;;;4.47;100.00;98378.19;5223023;28;20885;-60
2023/01/10 07:42:15;;;;;;;15.37;5.40;;;3.90;99.90;;;4.49;100.00;98394.41;5221755;28;20213;-62
2023/01/10 07:44:49;;;;;;;9.63;5.20;;;3.90;99.90;;;4.51;100.00;98405.53;5222836;28;20232;-62
2023/01/10 07:47:22;;;;;;;7.43;5.13;;;4.00;99.90;;;4.53;100.00;98413.28;5222385;28;20197;-62
2023/01/10 07:49:55;;;;;;;8.87;5.23;;;4.00;99.90;;;4.60;100.00;98414.72;5222037;28;20201;-61
2023/01/10 07:52:29;;;;;;;9.47;5.33;;;4.00;99.90;;;4.65;100.00;98421.09;5223944;28;20225;-61
2023/01/10 07:55:02;;;;;;;10.17;4.43;;;4.10;99.90;;;4.67;100.00;98412.00;5221341;28;20196;-61
2023/01/10 07:57:35;;;;;;;8.83;4.83;;;4.10;99.90;;;4.67;100.00;98412.88;5225244;28;20283;-61
2023/01/10 08:00:11;;;;;;;10.70;5.00;;;4.10;99.90;;;4.76;100.00;98412.78;5226215;28;20284;-61
2023/01/10 08:02:44;;;;;;;11.73;6.73;;;4.20;99.90;;;4.79;100.00;98402.94;5226638;28;20639;-61
2023/01/10 08:05:18;;;;;;;12.43;5.77;;;4.20;99.90;;;4.85;100.00;98403.47;5223653;28;20221;-63
2023/01/10 08:07:51;;;;;;;12.20;6.17;;;4.30;99.90;;;4.90;100.00;98417.44;5225573;28;20309;-60
2023/01/10 08:10:24;;;;;;;10.70;5.77;;;4.30;99.90;;;4.94;100.00;98419.47;5225207;28;20637;-62
2023/01/10 08:12:57;;;;;;;9.20;5.20;;;4.40;99.90;;;4.97;100.00;98419.72;5226039;28;20223;-62
2023/01/10 08:15:49;;;;;;;10.80;4.90;;;4.40;99.90;;;5.06;100.00;98433.97;5225730;28;20205;-62
2023/01/10 08:18:25;;;;;;;12.83;5.27;;;4.30;99.90;;;5.04;100.00;98430.44;5225660;28;20200;-62
2023/01/10 08:20:59;;;;;;;10.27;4.47;;;4.40;99.90;;;5.05;100.00;98437.25;5222867;28;20204;-61
2023/01/10 08:23:32;;;;;;;8.47;4.63;;;4.40;99.90;;;5.08;100.00;98447.66;5225556;28;20619;-60
2023/01/10 08:26:06;;;;;;;11.10;5.10;;;4.40;99.90;;;5.06;100.00;98449.16;5225893;28;20229;-61
2023/01/10 08:28:39;;;;;;;9.40;5.43;;;4.40;99.90;;;5.08;100.00;98457.78;5225632;28;20205;-60
2023/01/10 08:31:13;;;;;;;15.00;6.70;;;4.40;99.90;;;5.04;100.00;98464.25;5225805;28;20284;-60
2023/01/10 08:33:47;;;;;;;14.90;9.03;;;4.40;99.90;;;5.07;100.00;98467.03;5224597;28;20221;-59
2023/01/10 08:36:21;;;;;;;13.57;7.23;;;4.50;99.90;;;5.10;100.00;98466.44;5220456;28;20204;-60
2023/01/10 08:38:55;;;;;;;8.67;5.63;;;4.50;99.90;;;5.11;100.00;98468.19;5205482;28;20289;-61
2023/01/10 08:41:30;;;;;;;8.93;5.67;;;4.50;99.90;;;5.17;100.00;98473.78;5219518;28;20225;-61
2023/01/10 08:44:03;;;;;;;14.93;7.10;;;4.60;99.90;;;5.18;100.00;98480.66;5217774;28;20238;-61
2023/01/10 08:46:37;;;;;;;13.47;9.27;;;4.60;99.90;;;5.16;100.00;98492.28;5225750;28;20645;-61
2023/01/10 08:49:10;;;;;;;19.53;11.67;;;4.60;99.90;;;5.20;100.00;98496.88;5217853;28;20193;-62
2023/01/10 08:51:44;;;;;;;13.97;9.13;;;4.60;99.90;;;5.17;100.00;98494.06;5225253;28;20554;-62
2023/01/10 08:54:17;;;;;;;15.23;8.60;;;4.60;99.90;;;5.22;100.00;98485.22;5217469;28;20193;-60
2023/01/10 08:56:50;;;;;;;12.87;6.63;;;4.60;99.90;;;5.33;100.00;98502.25;5225323;28;20582;-62
2023/01/10 08:59:23;;;;;;;12.13;6.13;;;4.60;99.90;;;5.29;100.00;98505.25;5224754;28;20296;-61
2023/01/10 09:01:58;;;;;;;7.87;4.73;;;4.60;99.90;;;5.33;100.00;98493.78;5225207;28;20212;-61
2023/01/10 09:04:31;;;;;;;8.10;3.90;;;4.70;99.90;;;5.41;100.00;98491.16;5224447;28;20209;-61
2023/01/10 09:07:05;;;;;;;8.03;4.87;;;4.70;99.90;;;5.40;100.00;98486.81;5225061;28;20236;-60
2023/01/10 09:09:38;;;;;;;9.60;5.07;;;4.70;99.90;;;5.43;100.00;98484.53;5224995;28;20201;-61
2023/01/10 09:14:58;;;;;;;7.60;3.97;;;4.80;99.90;;;5.36;100.00;98502.53;5221654;28;20695;-61
2023/01/10 09:17:32;;;;;;;7.63;4.50;;;4.80;99.90;;;5.41;100.00;98505.47;5223504;28;20232;-62
2023/01/10 09:20:09;;;;;;;8.40;4.23;;;4.80;99.90;;;5.46;100.00;98513.47;5223779;28;20205;-61
2023/01/10 09:22:42;;;;;;;7.87;3.73;;;4.80;99.90;;;5.50;100.00;98518.06;5223965;28;20224;-60
2023/01/10 09:25:15;;;;;;;5.83;3.63;;;4.90;99.90;;;5.54;100.00;98522.63;5224371;28;20271;-61
2023/01/10 09:27:55;;;;;;;7.13;3.83;;;4.90;99.90;;;5.64;100.00;98525.22;5221934;28;20316;-61
2023/01/10 09:30:30;;;;;;;10.13;4.10;;;5.00;99.90;;;5.71;100.00;98535.13;5222412;28;20699;-61
2023/01/10 09:33:06;;;;;;;6.87;3.47;;;5.00;99.90;;;5.71;100.00;98542.72;5221092;28;20221;-60
2023/01/10 09:35:41;;;;;;;7.20;3.70;;;5.10;99.90;;;5.77;100.00;98538.19;5221958;28;20200;-60
2023/01/10 09:38:17;;;;;;;7.83;4.00;;;5.10;99.90;;;5.75;100.00;98552.41;5222093;28;20830;-61
2023/01/10 09:41:05;;;;;;;7.13;4.03;;;5.10;99.90;;;5.70;100.00;98561.25;5224174;28;20296;-61
2023/01/10 09:43:55;;;;;;;7.40;4.27;;;5.10;99.90;;;5.72;100.00;98569.84;5222787;28;20781;-61
2023/01/10 09:46:41;;;;;;;8.40;3.80;;;5.10;99.90;;;5.67;100.00;98571.13;5218123;28;20577;-61
2023/01/10 09:49:30;;;;;;;9.10;4.00;;;5.10;99.90;;;5.75;100.00;98569.25;5223814;28;20212;-59
2023/01/10 09:52:10;;;;;;;8.07;4.10;;;5.10;99.90;;;5.79;100.00;98577.25;5221096;28;20209;-62
2023/01/10 09:54:43;;;;;;;5.93;3.73;;;5.10;99.90;;;5.88;100.00;98577.16;5224131;28;20209;-61
2023/01/10 09:57:20;;;;;;;9.37;4.00;;;5.10;99.90;;;5.81;100.00;98580.84;5223416;28;20283;-63
2023/01/10 09:59:54;;;;;;;8.30;3.93;;;5.10;99.90;;;5.78;100.00;98577.13;5223771;28;20283;-62
2023/01/10 10:02:32;;;;;;;10.00;4.10;;;5.10;99.90;;;5.80;100.00;98576.50;5218687;28;20226;-62
2023/01/10 10:05:17;;;;;;;7.83;3.90;;;5.10;99.90;;;5.78;100.00;98570.41;5220292;28;20217;-62
2023/01/10 10:07:56;;;;;;;6.20;3.87;;;5.10;99.90;;;5.88;100.00;98567.91;5223598;28;20232;-62
2023/01/10 10:10:39;;;;;;;10.00;4.30;;;5.20;99.90;;;5.99;100.00;98575.59;5209687;28;20645;-61
2023/01/10 10:13:21;;;;;;;6.60;3.80;;;5.30;99.90;;;6.00;100.00;98568.09;5215376;28;20225;-62
2023/01/10 10:16:12;;;;;;;7.73;3.97;;;5.30;99.90;;;6.06;100.00;98581.31;5215252;28;20255;-62
2023/01/10 10:18:58;;;;;;;10.57;3.90;;;5.30;99.90;;;5.99;100.00;98575.59;5222504;28;20229;-63
2023/01/10 10:21:44;;;;;;;6.73;4.10;;;5.40;99.90;;;6.23;100.00;98571.72;5217085;28;20290;-62
2023/01/10 10:24:43;;;;;;;7.90;4.13;;;5.50;99.90;;;6.35;100.00;98576.94;5216082;28;20721;-62
2023/01/10 10:27:23;;;;;;;6.73;4.50;;;5.60;99.90;;;6.21;100.00;98576.69;5216616;28;20292;-62
2023/01/10 10:30:31;;;;;;;6.93;4.07;;;5.60;99.90;;;6.20;100.00;98579.06;5216849;28;20203;-61
2023/01/10 10:33:27;;;;;;;6.23;4.33;;;5.50;99.90;;;6.28;100.00;98581.50;5212877;28;20604;-61
2023/01/10 10:36:08;;;;;;;6.33;3.63;;;5.50;99.90;;;6.45;100.00;98576.97;5209778;28;20312;-61
2023/01/10 10:38:46;;;;;;;9.03;4.53;;;5.60;99.90;;;6.39;100.00;98584.97;5218138;28;20697;-62
2023/01/10 10:41:32;;;;;;;6.17;3.80;;;5.60;99.90;;;6.39;100.00;98577.34;5210879;28;20197;-62
2023/01/10 10:44:30;;;;;;;5.97;4.27;;;5.60;99.90;;;6.36;100.00;98581.28;5217918;28;20214;-61
2023/01/10 10:47:11;;;;;;;7.47;4.57;;;5.80;99.90;;;6.46;100.00;98588.91;5215488;28;20213;-59
2023/01/10 10:49:50;;;;;;;9.00;3.80;;;5.90;99.90;;;6.44;100.00;98587.88;5223353;28;20228;-61
2023/01/10 10:52:26;;;;;;;6.73;4.37;;;5.80;99.90;;;6.45;100.00;98579.53;5219546;28;20654;-60
2023/01/10 10:55:03;;;;;;;6.90;3.83;;;5.90;99.90;;;6.44;100.00;98573.56;5219753;28;20203;-61
2023/01/10 10:57:39;;;;;;;7.37;4.23;;;5.80;99.90;;;6.37;100.00;98571.25;5220213;28;20288;-61
2023/01/10 11:00:29;;;;;;;6.13;3.93;;;5.90;99.90;;;6.44;100.00;98567.56;5217848;28;20232;-61
2023/01/10 11:03:12;;;;;;;7.97;3.97;;;5.80;99.90;;;6.60;100.00;98562.13;5221828;28;20252;-61
2023/01/10 11:05:47;;;;;;;5.73;3.97;;;5.90;99.90;;;6.52;100.00;98577.63;5220845;28;20355;-61
2023/01/10 11:08:22;;;;;;;4.63;3.60;;;5.90;99.90;;;6.59;100.00;98573.06;5221204;28;20197;-61
2023/01/10 11:10:58;;;;;;;6.90;3.30;;;5.90;99.90;;;6.63;100.00;98570.91;5215440;28;20200;-61
2023/01/10 11:13:44;;;;;;;4.90;3.30;;;6.00;99.90;;;6.62;100.00;98578.41;5221360;28;20307;-61
2023/01/10 11:16:27;;;;;;;4.43;3.10;;;6.00;99.90;;;6.56;100.00;98580.44;5220259;28;20660;-61
2023/01/10 11:19:20;;;;;;;5.50;3.10;;;5.90;99.90;;;6.62;100.00;98578.41;5220387;28;20247;-60